createdAt,value
2019-02-12T05:03:39.848Z,88.183594
2019-02-12T05:07:07.745Z,87.866211
2019-02-12T05:10:35.643Z,88.287354
2019-02-12T05:14:03.528Z,88.287354
2019-02-12T05:17:31.430Z,88.287354
2019-02-12T05:20:59.330Z,88.391113
2019-02-12T05:24:27.214Z,88.391113
2019-02-12T05:27:55.116Z,88.702393
2019-02-12T05:31:23.999Z,89.013672
2019-02-12T05:34:51.935Z,88.702393
2019-02-12T05:38:20.812Z,88.909912
2019-02-12T05:41:48.721Z,88.702393
2019-02-12T05:45:16.635Z,88.494873
2019-02-12T05:48:44.533Z,88.598633
2019-02-12T05:52:12.446Z,88.702393
2019-02-12T05:55:41.331Z,88.391113
2019-02-12T05:59:09.214Z,88.702393
2019-02-12T06:02:37.110Z,88.494873
2019-02-12T06:06:05.015Z,88.079834
2019-02-12T06:09:32.903Z,88.494873
2019-02-12T06:13:00.816Z,88.702393
2019-02-12T06:16:28.703Z,88.598633
2019-02-12T06:19:56.620Z,88.391113
2019-02-12T06:23:24.519Z,88.494873
2019-02-12T06:26:53.408Z,88.702393
2019-02-12T06:30:21.287Z,88.909912
2019-02-12T06:33:49.211Z,88.909912
2019-02-12T06:37:17.133Z,88.909912
2019-02-12T06:40:45.009Z,88.702393
2019-02-12T06:44:12.909Z,88.806152
2019-02-12T06:47:41.803Z,88.909912
2019-02-12T06:51:09.709Z,89.013672
2019-02-12T06:54:37.594Z,89.117432
2019-02-12T06:58:05.504Z,89.221191
2019-02-12T07:01:33.405Z,89.117432
2019-02-12T07:05:03.261Z,89.117432
2019-02-12T07:08:31.162Z,89.117432
2019-02-12T07:11:59.065Z,89.221191
2019-02-12T07:15:28.650Z,89.117432
2019-02-12T07:18:57.838Z,89.324951
2019-02-12T07:22:25.738Z,89.538574
2019-02-12T07:25:55.084Z,89.013672
2019-02-12T07:29:22.505Z,89.221191
2019-02-12T07:32:52.391Z,89.117432
2019-02-12T07:36:20.614Z,89.221191
2019-02-12T07:39:48.509Z,89.221191
2019-02-12T07:43:16.398Z,88.659668
2019-02-12T07:46:44.304Z,88.763428
2019-02-12T07:50:12.186Z,88.452148
2019-02-12T07:53:40.093Z,88.452148
2019-02-12T07:57:09.006Z,88.452148
2019-02-12T08:00:37.884Z,88.763428
2019-02-12T08:04:05.801Z,88.659668
2019-02-12T08:07:33.696Z,88.763428
2019-02-12T08:11:01.597Z,88.519287
2019-02-12T08:14:29.487Z,88.201904
2019-02-12T08:17:57.390Z,88.098145
2019-02-12T08:21:25.290Z,87.646484
2019-02-12T08:24:53.175Z,87.646484
2019-02-12T08:28:21.102Z,86.914062
2019-02-12T08:31:49.001Z,87.121582
2019-02-12T08:35:17.925Z,87.084961
2019-02-12T08:38:45.892Z,87.188721
2019-02-12T08:42:13.793Z,87.29248
2019-02-12T08:45:41.688Z,87.188721
2019-02-12T08:49:09.628Z,86.108398
2019-02-12T08:52:37.556Z,86.212158
2019-02-12T08:56:05.451Z,86.108398
2019-02-12T08:59:33.360Z,85.900879
2019-02-12T09:03:01.306Z,85.48584
2019-02-12T09:06:29.220Z,85.5896
2019-02-12T09:09:57.135Z,84.820557
2019-02-12T09:13:26.021Z,84.509277
2019-02-12T09:16:53.922Z,84.820557
2019-02-12T09:20:21.816Z,85.235596
2019-02-12T09:23:49.723Z,84.197998
2019-02-12T09:27:22.585Z,83.740234
2019-02-12T09:30:50.455Z,84.472656
2019-02-12T09:34:19.327Z,83.843994
2019-02-12T09:37:47.382Z,84.265137
2019-02-12T09:41:15.283Z,83.843994
2019-02-12T09:44:44.167Z,82.458496
2019-02-12T09:48:12.074Z,81.835938
2019-02-12T09:51:39.945Z,81.799316
2019-02-12T09:55:07.828Z,82.421875
2019-02-12T09:58:35.743Z,80.554199
2019-02-12T10:02:03.619Z,80.206299
2019-02-12T10:05:31.507Z,81.097412
2019-02-12T10:08:59.505Z,80.230713
2019-02-12T10:12:27.442Z,77.880859
2019-02-12T10:15:55.331Z,75.115967
2019-02-12T10:19:23.216Z,73.016357
2019-02-12T10:22:51.087Z,71.917725
2019-02-12T10:26:18.977Z,72.637939
2019-02-12T10:29:46.866Z,74.047852
2019-02-12T10:33:16.056Z,76.190186
2019-02-12T10:36:43.617Z,75.671387
2019-02-12T10:40:12.502Z,75.463867
2019-02-12T10:43:40.383Z,72.741699
2019-02-12T10:47:09.264Z,68.42041
2019-02-12T10:50:37.231Z,67.181396
2019-02-12T10:54:05.106Z,66.015625
2019-02-12T10:57:35.017Z,66.357422
2019-02-12T11:01:02.909Z,63.635254
2019-02-12T11:04:31.786Z,61.126709
2019-02-12T11:07:59.658Z,60.906982
2019-02-12T11:11:27.558Z,62.341309
2019-02-12T11:14:55.481Z,62.780762
2019-02-12T11:18:24.365Z,61.242676
2019-02-12T11:21:52.271Z,60.345459
2019-02-12T11:25:21.150Z,61.682129
2019-02-12T11:28:49.143Z,59.49707
2019-02-12T11:32:17.024Z,58.129883
2019-02-12T11:35:44.927Z,58.92334
2019-02-12T11:39:13.922Z,57.873535
2019-02-12T11:42:41.800Z,57.36084
2019-02-12T11:46:10.412Z,56.384277
2019-02-12T11:49:38.392Z,57.025146
2019-02-12T11:53:06.270Z,56.665039
2019-02-12T11:56:35.082Z,57.049561
2019-02-12T12:00:02.971Z,55.126953
2019-02-12T12:03:30.882Z,55.92041
2019-02-12T12:06:58.786Z,55.822754
2019-02-12T12:10:26.788Z,56.072998
2019-02-12T12:13:55.680Z,57.592773
2019-02-12T12:17:23.606Z,59.204102
2019-02-12T12:20:51.508Z,60.36377
2019-02-12T12:24:19.405Z,61.621094
2019-02-12T12:27:47.333Z,63.018799
2019-02-12T12:31:15.253Z,63.48877
2019-02-12T12:34:44.141Z,61.785889
2019-02-12T12:38:12.041Z,63.562012
2019-02-12T12:41:39.969Z,63.793945
2019-02-12T12:45:09.430Z,63.354492
2019-02-12T12:48:37.389Z,64.031982
2019-02-12T12:52:06.303Z,65.533447
2019-02-12T12:55:34.217Z,65.606689
2019-02-12T12:59:02.136Z,63.000488
2019-02-12T13:02:30.058Z,62.695312
2019-02-12T13:05:59.069Z,62.1521
2019-02-12T13:09:27.021Z,60.168457
2019-02-12T13:12:55.965Z,59.680176
2019-02-12T13:16:24.246Z,59.472656
2019-02-12T13:19:52.145Z,59.960938
2019-02-12T13:23:20.065Z,60.577393
2019-02-12T13:26:47.973Z,61.193848
2019-02-12T13:30:15.905Z,62.249756
2019-02-12T13:33:43.871Z,61.090088
2019-02-12T13:37:13.013Z,60.03418
2019-02-12T13:40:40.687Z,59.448242
2019-02-12T13:44:08.606Z,60.50415
2019-02-12T13:47:36.553Z,59.912109
2019-02-12T13:51:04.513Z,61.248779
2019-02-12T13:54:32.432Z,60.400391
2019-02-12T13:58:01.417Z,61.047363
2019-02-12T14:01:29.913Z,61.663818
2019-02-12T14:04:57.855Z,62.591553
2019-02-12T14:08:25.799Z,60.015869
2019-02-12T14:11:53.707Z,60.046387
2019-02-12T14:15:21.615Z,60.455322
2019-02-12T14:18:49.547Z,60.5896
2019-02-12T14:22:18.470Z,61.645508
2019-02-12T14:25:46.391Z,60.925293
2019-02-12T14:29:14.311Z,61.541748
2019-02-12T14:32:42.211Z,62.164307
2019-02-12T14:36:10.110Z,63.812256
2019-02-12T14:39:38.065Z,62.750244
2019-02-12T14:43:13.599Z,62.719727
2019-02-12T14:46:38.023Z,62.310791
2019-02-12T14:50:06.051Z,62.518311
2019-02-12T14:53:34.026Z,61.895752
2019-02-12T14:57:03.080Z,62.030029
2019-02-12T15:00:31.159Z,65.002441
2019-02-12T15:04:00.083Z,66.271973
2019-02-12T15:07:28.029Z,65.374756
2019-02-12T15:10:56.132Z,65.789795
2019-02-12T15:14:24.223Z,66.955566
2019-02-12T15:17:52.305Z,66.436768
2019-02-12T15:21:20.268Z,67.297363
2019-02-12T15:24:48.180Z,67.089844
2019-02-12T15:28:16.112Z,67.63916
2019-02-12T15:31:44.024Z,70.013428
2019-02-12T15:35:11.999Z,69.293213
2019-02-12T15:38:39.973Z,70.117188
2019-02-12T15:42:07.919Z,71.118164
2019-02-12T15:45:35.981Z,72.460938
2019-02-12T15:49:04.349Z,72.808838
2019-02-12T15:52:32.482Z,73.632812
2019-02-12T15:56:00.767Z,73.876953
2019-02-12T15:59:31.491Z,73.669434
2019-02-12T16:03:00.052Z,74.32251
2019-02-12T16:06:28.241Z,75.189209
2019-02-12T16:09:57.391Z,76.019287
2019-02-12T16:13:25.384Z,77.301025
2019-02-12T16:16:54.403Z,77.954102
2019-02-12T16:20:22.550Z,79.827881
2019-02-12T16:23:51.565Z,79.864502
2019-02-12T16:27:19.644Z,80.59082
2019-02-12T16:30:47.778Z,81.835938
2019-02-12T16:34:15.782Z,81.665039
2019-02-12T16:37:44.993Z,82.598877
2019-02-12T16:41:13.280Z,82.324219
2019-02-12T16:44:41.575Z,83.050537
2019-02-12T16:48:09.767Z,83.990479
2019-02-12T16:51:37.972Z,84.0271
2019-02-12T16:55:06.127Z,84.234619
2019-02-12T16:58:35.105Z,84.234619
2019-02-12T17:02:03.097Z,85.522461
2019-02-12T17:05:30.990Z,84.796143
2019-02-12T17:08:58.895Z,85.003662
2019-02-12T17:12:26.792Z,85.211182
2019-02-12T17:15:54.688Z,85.522461
2019-02-12T17:19:22.598Z,85.668945
2019-02-12T17:22:50.503Z,85.144043
2019-02-12T17:26:18.401Z,85.455322
2019-02-12T17:29:46.294Z,85.980225
2019-02-12T17:33:14.205Z,85.559082
2019-02-12T17:36:43.102Z,85.144043
2019-02-12T17:40:11.003Z,85.040283
2019-02-12T17:43:38.932Z,85.247803
2019-02-12T17:47:07.111Z,85.040283
2019-02-12T17:50:35.131Z,84.729004
2019-02-12T17:54:03.498Z,84.936523
2019-02-12T17:57:33.108Z,84.106445
2019-02-12T18:01:00.547Z,84.521484
2019-02-12T18:04:28.605Z,84.106445
2019-02-12T18:07:56.798Z,83.581543
2019-02-12T18:11:24.900Z,83.477783
2019-02-12T18:14:52.892Z,83.270264
2019-02-12T18:18:22.998Z,82.855225
2019-02-12T18:21:51.107Z,82.611084
2019-02-12T18:25:19.206Z,82.299805
2019-02-12T18:28:48.218Z,82.086182
2019-02-12T18:32:16.243Z,82.086182
2019-02-12T18:35:45.227Z,82.611084
2019-02-12T18:39:13.133Z,81.774902
2019-02-12T18:42:41.030Z,82.196045
2019-02-12T18:46:08.934Z,81.738281
2019-02-12T18:49:36.900Z,82.049561
2019-02-12T18:53:04.829Z,81.530762
2019-02-12T18:56:32.849Z,82.25708
2019-02-12T19:00:05.021Z,81.634521
2019-02-12T19:03:33.171Z,82.15332
2019-02-12T19:07:01.226Z,82.15332
2019-02-12T19:10:30.398Z,82.574463
2019-02-12T19:13:58.469Z,82.049561
2019-02-12T19:17:27.482Z,82.36084
2019-02-12T19:20:55.419Z,81.945801
2019-02-12T19:24:24.355Z,82.36084
2019-02-12T19:27:52.284Z,82.4646
2019-02-12T19:31:20.182Z,81.842041
2019-02-12T19:34:48.091Z,82.4646
2019-02-12T19:38:16.022Z,81.323242
2019-02-12T19:41:43.932Z,80.767822
2019-02-12T19:45:11.897Z,80.975342
2019-02-12T19:48:39.809Z,80.352783
2019-02-12T19:52:07.725Z,80.871582
2019-02-12T19:55:36.634Z,80.456543
2019-02-12T19:59:04.560Z,80.560303
2019-02-12T20:02:33.334Z,80.249023
2019-02-12T20:06:00.419Z,80.352783
2019-02-12T20:09:28.322Z,80.560303
2019-02-12T20:12:56.231Z,81.079102
2019-02-12T20:16:24.138Z,82.012939
2019-02-12T20:19:54.038Z,82.427979
2019-02-12T20:23:22.917Z,83.575439
2019-02-12T20:26:50.839Z,84.509277
2019-02-12T20:30:18.783Z,85.443115
2019-02-12T20:33:46.681Z,86.065674
2019-02-12T20:37:18.609Z,86.376953
2019-02-12T20:40:46.500Z,87.213135
2019-02-12T20:44:14.448Z,88.043213
2019-02-12T20:47:42.405Z,88.458252
2019-02-12T20:51:10.350Z,89.916992
2019-02-12T20:54:38.308Z,91.308594
2019-02-12T20:58:06.256Z,92.034912
2019-02-12T21:01:34.623Z,93.182373
2019-02-12T21:05:03.905Z,93.389893
2019-02-12T21:08:33.114Z,93.701172
2019-02-12T21:12:01.142Z,94.73877
2019-02-12T21:15:29.036Z,95.465088
2019-02-12T21:18:57.040Z,95.825195
2019-02-12T21:22:24.913Z,96.343994
2019-02-12T21:25:52.822Z,96.343994
2019-02-12T21:29:21.754Z,96.655273
2019-02-12T21:32:49.723Z,96.716309
2019-02-12T21:36:17.645Z,97.131348
2019-02-12T21:39:45.572Z,97.027588
2019-02-12T21:43:13.456Z,96.716309
2019-02-12T21:46:43.178Z,96.09375
2019-02-12T21:50:10.394Z,96.09375
2019-02-12T21:53:38.288Z,96.30127
2019-02-12T21:57:06.183Z,96.09375
2019-02-12T22:00:34.160Z,96.09375
2019-02-12T22:04:02.099Z,95.98999
2019-02-12T22:07:30.017Z,96.19751
2019-02-12T22:10:57.932Z,95.88623
2019-02-12T22:14:25.819Z,95.776367
2019-02-12T22:17:53.798Z,95.88623
2019-02-12T22:21:21.682Z,95.672607
2019-02-12T22:24:49.746Z,95.050049
2019-02-12T22:28:18.643Z,95.050049
2019-02-12T22:31:46.556Z,94.73877
2019-02-12T22:35:15.447Z,94.63501
2019-02-12T22:38:43.393Z,94.488525
2019-02-12T22:42:11.294Z,94.073486
2019-02-12T22:45:39.230Z,94.177246
2019-02-12T22:49:07.240Z,94.177246
2019-02-12T22:52:35.149Z,94.177246
2019-02-12T22:56:03.076Z,94.177246
2019-02-12T22:59:31.945Z,93.969727
